createdAt,value
2019-06-08T00:01:43.212Z,100.00
2019-06-08T00:04:12.953Z,100.00
2019-06-08T00:06:42.269Z,100.00
2019-06-08T00:11:51.427Z,100.00
2019-06-08T00:17:00.628Z,100.00
2019-06-08T00:19:29.226Z,100.00
2019-06-08T00:21:57.800Z,100.00
2019-06-08T00:24:26.873Z,100.00
2019-06-08T00:26:57.089Z,100.00
2019-06-08T00:29:26.096Z,100.00
2019-06-08T00:34:33.027Z,100.00
2019-06-08T00:37:05.108Z,100.00
2019-06-08T00:39:34.081Z,100.00
2019-06-08T00:44:40.638Z,100.00
2019-06-08T00:47:09.674Z,100.00
2019-06-08T00:49:38.940Z,100.00
2019-06-08T00:52:10.749Z,100.00
2019-06-08T00:54:39.340Z,100.00
2019-06-08T00:57:08.477Z,100.00
2019-06-08T00:59:37.732Z,100.00
2019-06-08T01:02:09.623Z,100.00
2019-06-08T01:04:38.631Z,99.91
2019-06-08T01:07:08.030Z,100.00
2019-06-08T01:09:37.021Z,100.00
2019-06-08T01:12:05.624Z,100.00
2019-06-08T01:14:34.250Z,100.00
2019-06-08T01:17:02.871Z,100.00
2019-06-08T01:22:11.716Z,100.00
2019-06-08T01:24:40.607Z,100.00
2019-06-08T01:27:09.573Z,100.00
2019-06-08T01:29:38.631Z,100.00
2019-06-08T01:32:07.998Z,100.00
2019-06-08T01:34:36.961Z,100.00
2019-06-08T01:37:06.692Z,100.00
2019-06-08T01:39:35.314Z,100.00
2019-06-08T01:44:43.485Z,97.07
2019-06-08T01:49:57.764Z,99.50
2019-06-08T01:52:27.026Z,100.00
2019-06-08T01:54:55.995Z,100.00
2019-06-08T01:57:25.235Z,99.18
2019-06-08T01:59:54.943Z,98.20
2019-06-08T02:02:23.828Z,98.15
2019-06-08T02:07:30.414Z,96.23
2019-06-08T02:09:59.250Z,95.07
2019-06-08T02:12:28.850Z,95.04
2019-06-08T02:14:57.667Z,93.96
2019-06-08T02:17:27.316Z,92.33
2019-06-08T02:22:35.122Z,89.74
2019-06-08T02:25:04.543Z,90.82
2019-06-08T02:27:33.718Z,92.28
2019-06-08T02:30:02.626Z,90.42
2019-06-08T02:32:33.046Z,91.50
2019-06-08T02:35:02.481Z,90.17
2019-06-08T02:37:33.115Z,90.14
2019-06-08T02:42:46.728Z,90.04
2019-06-08T02:45:15.827Z,88.59
2019-06-08T02:50:57.954Z,88.97
2019-06-08T02:53:29.185Z,88.41
2019-06-08T02:58:38.079Z,89.33
2019-06-08T03:03:50.464Z,91.12
2019-06-08T03:06:20.302Z,90.56
2019-06-08T03:08:50.668Z,90.17
2019-06-08T03:11:20.757Z,90.21
2019-06-08T03:13:52.909Z,91.32
2019-06-08T03:16:22.303Z,90.01
2019-06-08T03:18:51.599Z,90.16
2019-06-08T03:21:20.811Z,90.36
2019-06-08T03:23:50.082Z,88.35
2019-06-08T03:26:18.767Z,87.99
2019-06-08T03:28:47.489Z,88.36
2019-06-08T03:31:16.390Z,89.61
2019-06-08T03:36:24.518Z,89.46
2019-06-08T03:41:30.742Z,89.12
2019-06-08T03:43:59.769Z,89.89
2019-06-08T03:46:28.334Z,89.30
2019-06-08T03:48:57.373Z,89.98
2019-06-08T03:51:26.006Z,90.72
2019-06-08T03:53:54.592Z,88.19
2019-06-08T03:56:23.595Z,86.97
2019-06-08T03:58:52.081Z,86.50
2019-06-08T04:01:21.150Z,85.88
2019-06-08T04:03:50.380Z,86.38
2019-06-08T04:06:19.681Z,83.65
2019-06-08T04:08:50.006Z,84.38
2019-06-08T04:11:19.426Z,85.64
2019-06-08T04:13:47.938Z,84.96
2019-06-08T04:16:16.510Z,81.83
2019-06-08T04:18:46.804Z,83.22
2019-06-08T04:21:15.565Z,81.47
2019-06-08T04:23:45.349Z,80.72
2019-06-08T04:26:15.635Z,81.87
2019-06-08T04:28:44.858Z,79.64
2019-06-08T04:31:15.002Z,80.53
2019-06-08T04:33:44.273Z,79.58
2019-06-08T04:38:50.644Z,78.55
2019-06-08T04:43:57.110Z,78.60
2019-06-08T04:46:26.125Z,77.91
2019-06-08T04:48:55.094Z,76.74
2019-06-08T04:51:24.008Z,77.27
2019-06-08T04:53:52.974Z,76.47
2019-06-08T04:56:21.565Z,76.34
2019-06-08T05:01:28.710Z,74.70
2019-06-08T05:03:58.522Z,73.53
2019-06-08T05:06:27.095Z,74.07
2019-06-08T05:08:56.237Z,73.30
2019-06-08T05:14:02.717Z,73.82
2019-06-08T05:16:31.639Z,72.41
2019-06-08T05:19:00.604Z,73.76
2019-06-08T05:21:29.231Z,72.73
2019-06-08T05:23:59.101Z,73.89
2019-06-08T05:26:28.106Z,73.50
2019-06-08T05:28:57.924Z,74.18
2019-06-08T05:31:26.471Z,73.38
2019-06-08T05:33:55.066Z,73.83
2019-06-08T05:36:23.677Z,73.22
2019-06-08T05:38:52.281Z,73.43
2019-06-08T05:41:23.935Z,74.25
2019-06-08T05:50:10.471Z,72.78
2019-06-08T05:52:39.840Z,74.23
2019-06-08T05:55:08.601Z,73.47
2019-06-08T05:57:37.567Z,72.42
2019-06-08T06:00:09.254Z,73.71
2019-06-08T06:02:37.945Z,72.80
2019-06-08T06:05:07.057Z,73.56
2019-06-08T06:07:35.630Z,72.21
2019-06-08T06:10:05.189Z,70.61
2019-06-08T06:12:34.006Z,71.12
2019-06-08T06:15:03.265Z,70.76
2019-06-08T06:17:32.163Z,72.33
2019-06-08T06:20:01.618Z,70.28
2019-06-08T06:25:08.179Z,70.50
2019-06-08T06:27:37.408Z,69.07
2019-06-08T06:30:07.195Z,70.04
2019-06-08T06:32:36.484Z,67.91
2019-06-08T06:35:06.281Z,68.52
2019-06-08T06:37:35.779Z,67.61
2019-06-08T06:40:05.052Z,68.73
2019-06-08T06:42:33.637Z,66.42
2019-06-08T06:45:02.658Z,67.29
2019-06-08T06:47:31.745Z,66.27
2019-06-08T06:50:00.378Z,66.43
2019-06-08T06:52:29.279Z,66.66
2019-06-08T06:55:03.935Z,65.92
2019-06-08T07:00:15.913Z,66.60
2019-06-08T07:02:45.828Z,65.44
2019-06-08T07:05:14.659Z,65.47
2019-06-08T07:07:44.120Z,64.59
2019-06-08T07:10:13.412Z,63.89
2019-06-08T07:12:42.018Z,64.71
2019-06-08T07:15:14.470Z,63.41
2019-06-08T07:17:43.426Z,61.80
2019-06-08T07:20:12.085Z,61.47
2019-06-08T07:22:41.099Z,60.58
2019-06-08T07:25:10.403Z,61.68
2019-06-08T07:27:38.971Z,61.26
2019-06-08T07:30:08.887Z,60.58
2019-06-08T07:32:37.831Z,61.01
2019-06-08T07:35:06.913Z,60.18
2019-06-08T07:37:35.942Z,61.17
2019-06-08T07:40:05.440Z,61.26
2019-06-08T07:42:34.892Z,60.58
2019-06-08T07:45:03.859Z,60.26
2019-06-08T07:50:17.885Z,60.22
2019-06-08T07:52:47.965Z,58.83
2019-06-08T07:55:17.603Z,57.33
2019-06-08T07:57:48.565Z,55.99
2019-06-08T08:00:17.375Z,54.81
2019-06-08T08:02:46.013Z,53.59
2019-06-08T08:05:14.872Z,51.75
2019-06-08T08:07:44.221Z,51.89
2019-06-08T08:10:13.821Z,52.58
2019-06-08T08:12:42.944Z,50.32
2019-06-08T08:15:12.038Z,50.19
2019-06-08T08:17:40.661Z,49.34
2019-06-08T08:20:10.216Z,49.17
2019-06-08T08:22:38.837Z,49.77
2019-06-08T08:25:08.378Z,48.71
2019-06-08T08:27:38.275Z,48.76
2019-06-08T08:30:08.894Z,47.99
2019-06-08T08:35:15.155Z,48.46
2019-06-08T08:37:44.747Z,49.93
2019-06-08T08:40:14.190Z,49.27
2019-06-08T08:42:43.697Z,48.80
2019-06-08T08:45:12.954Z,49.06
2019-06-08T08:50:20.284Z,47.66
2019-06-08T08:52:51.198Z,46.91
2019-06-08T08:55:20.744Z,47.62
2019-06-08T08:57:51.601Z,45.55
2019-06-08T09:00:20.830Z,45.05
2019-06-08T09:02:59.086Z,45.88
2019-06-08T09:05:20.601Z,45.09
2019-06-08T09:07:52.039Z,44.28
2019-06-08T09:10:20.613Z,45.96
2019-06-08T09:12:52.124Z,45.20
2019-06-08T09:15:20.148Z,44.71
2019-06-08T09:17:52.125Z,45.00
2019-06-08T09:20:20.397Z,45.23
2019-06-08T09:22:56.625Z,45.24
2019-06-08T09:25:19.457Z,46.52
2019-06-08T09:30:27.494Z,40.65
2019-06-08T09:32:59.410Z,41.00
2019-06-08T09:35:28.002Z,40.92
2019-06-08T09:38:01.153Z,40.71
2019-06-08T09:43:10.328Z,39.77
2019-06-08T09:48:14.077Z,40.06
2019-06-08T09:50:43.451Z,41.00
2019-06-08T09:55:50.489Z,37.58
2019-06-08T09:58:19.537Z,37.31
2019-06-08T10:00:49.420Z,39.06
2019-06-08T10:05:58.506Z,36.66
2019-06-08T10:08:28.309Z,37.05
2019-06-08T10:11:01.464Z,36.16
2019-06-08T10:13:30.593Z,37.02
2019-06-08T10:16:03.131Z,37.67
2019-06-08T10:18:30.420Z,37.65
2019-06-08T10:23:42.839Z,36.52
2019-06-08T10:28:52.324Z,36.77
2019-06-08T10:31:35.542Z,36.58
2019-06-08T10:36:31.034Z,35.83
2019-06-08T10:39:03.739Z,36.78
2019-06-08T10:44:13.850Z,35.85
2019-06-08T10:46:40.596Z,35.02
2019-06-08T10:49:14.239Z,33.47
2019-06-08T10:51:41.223Z,35.98
2019-06-08T10:56:51.562Z,33.82
2019-06-08T10:59:20.500Z,34.94
2019-06-08T11:01:49.883Z,35.99
2019-06-08T11:04:18.760Z,34.45
2019-06-08T11:09:24.929Z,34.60
2019-06-08T11:11:54.001Z,35.34
2019-06-08T11:14:22.957Z,33.03
2019-06-08T11:16:52.135Z,34.77
2019-06-08T11:19:21.066Z,35.83
2019-06-08T11:21:49.853Z,35.56
2019-06-08T11:24:24.948Z,35.30
2019-06-08T11:29:27.542Z,35.97
2019-06-08T11:31:59.926Z,34.71
2019-06-08T11:34:29.095Z,36.01
2019-06-08T11:36:59.611Z,36.00
2019-06-08T11:39:29.085Z,35.55
2019-06-08T11:41:59.084Z,35.74
2019-06-08T11:44:29.346Z,35.51
2019-06-08T11:46:58.072Z,34.66
2019-06-08T11:49:27.879Z,35.61
2019-06-08T11:51:58.348Z,36.62
2019-06-08T11:54:36.156Z,35.98
2019-06-08T11:57:00.679Z,36.46
2019-06-08T11:59:31.698Z,35.20
2019-06-08T12:02:01.900Z,36.28
2019-06-08T12:04:31.117Z,35.85
2019-06-08T12:07:00.519Z,36.50
2019-06-08T12:09:29.247Z,37.43
2019-06-08T12:11:58.500Z,37.17
2019-06-08T12:14:27.196Z,36.97
2019-06-08T12:16:58.123Z,36.55
2019-06-08T12:19:28.438Z,36.55
2019-06-08T12:21:58.132Z,37.23
2019-06-08T12:24:40.954Z,36.50
2019-06-08T12:27:03.523Z,36.08
2019-06-08T12:32:08.888Z,36.07
2019-06-08T12:34:38.462Z,36.87
2019-06-08T12:37:08.826Z,36.22
2019-06-08T12:39:38.861Z,36.14
2019-06-08T12:42:15.628Z,36.91
2019-06-08T12:44:39.470Z,36.69
2019-06-08T12:47:13.334Z,36.43
2019-06-08T12:49:40.401Z,35.23
2019-06-08T12:52:12.413Z,36.43
2019-06-08T12:54:56.193Z,35.96
2019-06-08T12:57:14.929Z,35.65
2019-06-08T13:02:24.107Z,37.35
2019-06-08T13:04:52.104Z,37.63
2019-06-08T13:07:20.759Z,36.88
2019-06-08T13:09:50.085Z,36.85
2019-06-08T13:12:20.339Z,37.07
2019-06-08T13:14:50.624Z,36.20
2019-06-08T13:17:21.266Z,34.95
2019-06-08T13:19:50.725Z,34.22
2019-06-08T13:22:23.935Z,36.40
2019-06-08T13:24:49.765Z,35.50
2019-06-08T13:27:21.532Z,34.64
2019-06-08T13:32:28.458Z,34.99
2019-06-08T13:34:58.450Z,35.86
2019-06-08T13:37:27.936Z,35.45
2019-06-08T13:39:59.044Z,35.57
2019-06-08T13:42:27.993Z,35.99
2019-06-08T13:44:57.923Z,37.49
2019-06-08T13:47:28.288Z,36.39
2019-06-08T13:49:57.001Z,35.97
2019-06-08T13:52:28.021Z,36.84
2019-06-08T13:54:58.344Z,37.62
2019-06-08T13:57:27.132Z,35.64
2019-06-08T13:59:57.872Z,36.05
2019-06-08T14:02:30.927Z,37.23
2019-06-08T14:04:59.159Z,37.16
2019-06-08T14:07:34.240Z,36.46
2019-06-08T14:10:01.718Z,36.94
2019-06-08T14:12:31.440Z,38.28
2019-06-08T14:15:00.491Z,37.19
2019-06-08T14:20:08.073Z,38.11
2019-06-08T14:22:38.795Z,37.81
2019-06-08T14:27:47.998Z,36.06
2019-06-08T14:30:18.276Z,35.80
2019-06-08T14:32:47.937Z,34.76
2019-06-08T14:35:20.625Z,34.70
2019-06-08T14:37:48.238Z,34.69
2019-06-08T14:40:17.759Z,34.53
2019-06-08T14:42:48.490Z,34.80
2019-06-08T14:45:18.129Z,34.61
2019-06-08T14:47:47.909Z,34.56
2019-06-08T14:50:18.478Z,34.96
2019-06-08T14:52:50.393Z,34.91
2019-06-08T14:55:20.238Z,32.95
2019-06-08T14:57:49.665Z,34.10
2019-06-08T15:02:59.152Z,32.74
2019-06-08T15:05:30.728Z,32.70
2019-06-08T15:10:38.281Z,34.17
2019-06-08T15:13:07.748Z,32.44
2019-06-08T15:15:38.091Z,32.67
2019-06-08T15:18:10.558Z,34.23
2019-06-08T15:20:38.095Z,34.34
2019-06-08T15:23:08.178Z,33.92
2019-06-08T15:25:38.673Z,34.22
2019-06-08T15:28:08.239Z,35.11
2019-06-08T15:30:38.105Z,35.07
2019-06-08T15:35:47.566Z,34.38
2019-06-08T15:38:17.554Z,33.89
2019-06-08T15:40:47.802Z,33.47
2019-06-08T15:43:18.254Z,33.77
2019-06-08T15:48:28.983Z,35.18
2019-06-08T15:50:58.363Z,33.78
2019-06-08T15:53:29.681Z,33.93
2019-06-08T15:55:58.470Z,33.85
2019-06-08T15:58:29.919Z,35.29
2019-06-08T16:00:58.474Z,33.85
2019-06-08T16:03:27.441Z,34.94
2019-06-08T16:08:37.864Z,34.90
2019-06-08T16:11:06.632Z,34.76
2019-06-08T16:13:35.782Z,35.99
2019-06-08T16:16:04.600Z,35.80
2019-06-08T16:18:33.557Z,36.51
2019-06-08T16:23:40.252Z,37.84
2019-06-08T16:26:09.562Z,38.08
2019-06-08T16:28:38.676Z,37.92
2019-06-08T16:31:08.058Z,38.17
2019-06-08T16:33:36.950Z,38.27
2019-06-08T16:36:05.556Z,36.45
2019-06-08T16:38:34.592Z,36.92
2019-06-08T16:43:42.233Z,37.83
2019-06-08T16:46:11.890Z,38.64
2019-06-08T16:51:18.358Z,38.82
2019-06-08T16:53:47.347Z,39.45
2019-06-08T16:58:56.588Z,37.89
2019-06-08T17:01:25.171Z,36.66
2019-06-08T17:03:54.070Z,36.56
2019-06-08T17:06:23.252Z,36.05
2019-06-08T17:11:33.790Z,35.97
2019-06-08T17:14:02.827Z,36.63
2019-06-08T17:16:32.216Z,36.38
2019-06-08T17:21:40.589Z,35.76
2019-06-08T17:26:46.709Z,36.00
2019-06-08T17:29:15.710Z,36.00
2019-06-08T17:31:44.809Z,35.81
2019-06-08T17:34:13.650Z,35.64
2019-06-08T17:36:42.750Z,35.00
2019-06-08T17:41:48.932Z,35.06
2019-06-08T17:44:17.771Z,35.26
2019-06-08T17:49:26.393Z,36.34
2019-06-08T17:51:55.249Z,37.18
2019-06-08T17:54:24.598Z,37.49
2019-06-08T17:56:54.411Z,37.68
2019-06-08T17:59:23.383Z,37.54
2019-06-08T18:01:53.104Z,37.03
2019-06-08T18:04:22.210Z,37.03
2019-06-08T18:06:51.067Z,37.31
2019-06-08T18:09:20.105Z,38.32
2019-06-08T18:11:49.346Z,37.59
2019-06-08T18:14:18.234Z,38.24
2019-06-08T18:16:47.926Z,38.74
2019-06-08T18:19:28.310Z,38.63
2019-06-08T18:22:04.707Z,39.04
2019-06-08T18:24:28.421Z,39.59
2019-06-08T18:26:58.742Z,39.41
2019-06-08T18:29:27.934Z,39.64
2019-06-08T18:31:58.139Z,39.06
2019-06-08T18:34:28.181Z,40.04
2019-06-08T18:36:58.188Z,39.83
2019-06-08T18:42:10.178Z,39.99
2019-06-08T18:44:42.466Z,40.85
2019-06-08T18:47:10.718Z,40.57
2019-06-08T18:52:17.910Z,41.37
2019-06-08T18:54:49.277Z,41.40
2019-06-08T18:57:17.665Z,41.52
2019-06-08T19:02:25.929Z,41.86
2019-06-08T19:04:57.361Z,42.06
2019-06-08T19:07:28.310Z,41.94
2019-06-08T19:09:59.683Z,42.14
2019-06-08T19:12:28.709Z,41.88
2019-06-08T19:14:58.615Z,42.21
2019-06-08T19:17:28.435Z,42.43
2019-06-08T19:19:58.055Z,42.43
2019-06-08T19:22:30.069Z,42.66
2019-06-08T19:24:57.844Z,42.99
2019-06-08T19:27:27.697Z,43.40
2019-06-08T19:29:57.770Z,43.62
2019-06-08T19:32:28.030Z,43.16
2019-06-08T19:34:57.997Z,43.18
2019-06-08T19:37:28.059Z,43.48
2019-06-08T19:39:57.780Z,44.27
2019-06-08T19:42:36.667Z,44.12
2019-06-08T19:45:05.069Z,43.72
2019-06-08T19:47:27.999Z,43.94
2019-06-08T19:49:57.787Z,45.56
2019-06-08T19:52:26.551Z,45.81
2019-06-08T19:54:55.263Z,45.63
2019-06-08T19:57:24.223Z,46.17
2019-06-08T19:59:53.149Z,46.17
2019-06-08T20:02:21.808Z,46.56
2019-06-08T20:04:50.549Z,47.11
2019-06-08T20:07:19.534Z,47.49
2019-06-08T20:09:49.687Z,47.52
2019-06-08T20:12:18.978Z,47.85
2019-06-08T20:14:48.410Z,49.00
2019-06-08T20:17:19.418Z,48.81
2019-06-08T20:19:50.491Z,48.92
2019-06-08T20:24:56.095Z,49.11
2019-06-08T20:30:09.542Z,49.89
2019-06-08T20:32:37.847Z,49.99
2019-06-08T20:35:07.976Z,50.68
2019-06-08T20:37:38.097Z,51.11
2019-06-08T20:40:13.645Z,50.98
2019-06-08T20:42:37.942Z,50.96
2019-06-08T20:45:08.178Z,51.23
2019-06-08T20:47:39.075Z,51.52
2019-06-08T20:50:07.952Z,51.70
2019-06-08T20:52:37.832Z,51.90
2019-06-08T20:55:07.813Z,52.32
2019-06-08T20:57:36.864Z,52.55
2019-06-08T21:00:09.180Z,52.76
2019-06-08T21:02:37.787Z,52.66
2019-06-08T21:05:07.864Z,54.09
2019-06-08T21:07:37.081Z,54.54
2019-06-08T21:10:08.544Z,55.65
2019-06-08T21:12:37.961Z,56.13
2019-06-08T21:15:07.232Z,55.88
2019-06-08T21:17:38.239Z,56.35
2019-06-08T21:20:08.481Z,56.69
2019-06-08T21:22:37.393Z,57.99
2019-06-08T21:25:08.703Z,57.01
2019-06-08T21:27:38.530Z,56.64
2019-06-08T21:30:19.793Z,56.38
2019-06-08T21:32:38.690Z,56.85
2019-06-08T21:35:07.891Z,56.57
2019-06-08T21:37:37.728Z,57.77
2019-06-08T21:40:08.512Z,57.28
2019-06-08T21:42:37.140Z,58.19
2019-06-08T21:45:09.436Z,56.72
2019-06-08T21:47:37.844Z,58.41
2019-06-08T21:50:08.090Z,58.81
2019-06-08T21:55:14.483Z,58.46
2019-06-08T21:57:43.199Z,57.44
2019-06-08T22:00:34.715Z,59.07
2019-06-08T22:02:43.319Z,58.00
2019-06-08T22:05:12.617Z,58.34
2019-06-08T22:07:42.097Z,58.64
2019-06-08T22:12:53.281Z,58.57
2019-06-08T22:15:22.435Z,60.62
2019-06-08T22:17:52.004Z,61.30
2019-06-08T22:23:00.918Z,63.97
2019-06-08T22:25:33.203Z,64.33
2019-06-08T22:30:42.749Z,64.85
2019-06-08T22:33:08.872Z,65.07
2019-06-08T22:35:37.935Z,65.17
2019-06-08T22:38:10.090Z,64.47
2019-06-08T22:40:39.489Z,64.31
2019-06-08T22:43:08.347Z,64.98
2019-06-08T22:45:37.698Z,64.93
2019-06-08T22:48:08.163Z,64.62
2019-06-08T22:50:38.251Z,64.38
2019-06-08T22:53:08.018Z,64.18
2019-06-08T22:55:38.277Z,63.31
2019-06-08T22:58:07.778Z,62.72
2019-06-08T23:00:51.777Z,61.18
2019-06-08T23:05:47.791Z,61.41
2019-06-08T23:08:17.685Z,60.37
2019-06-08T23:10:48.266Z,60.50
2019-06-08T23:13:17.892Z,60.84
2019-06-08T23:15:47.887Z,61.03
2019-06-08T23:18:18.097Z,60.84
2019-06-08T23:23:23.928Z,62.03
2019-06-08T23:25:52.943Z,62.48
2019-06-08T23:28:21.880Z,62.96
2019-06-08T23:31:03.662Z,63.55
2019-06-08T23:33:22.047Z,62.45
2019-06-08T23:36:30.002Z,62.75
2019-06-08T23:38:21.859Z,61.92
2019-06-08T23:40:50.980Z,61.54
2019-06-08T23:43:20.004Z,62.52
2019-06-08T23:45:49.003Z,63.03
2019-06-08T23:48:17.638Z,63.14
2019-06-08T23:50:47.390Z,63.45
2019-06-08T23:55:58.277Z,66.00
2019-06-08T23:58:27.820Z,66.18
